sensor_id;sensor_type;location;lat;lon;timestamp;pressure;altitude;pressure_sealevel;temperature;humidity
38806;BME280;25635;51.146;17.162;2023-02-16T00:00:31;100990.73;;;-2.28;86.54
38806;BME280;25635;51.146;17.162;2023-02-16T00:03:19;100992.48;;;-2.33;87.18
38806;BME280;25635;51.146;17.162;2023-02-16T00:05:47;100990.17;;;-2.35;87.23
38806;BME280;25635;51.146;17.162;2023-02-16T00:08:13;100985.05;;;-2.38;87.07
38806;BME280;25635;51.146;17.162;2023-02-16T00:10:39;100982.84;;;-2.41;86.74
38806;BME280;25635;51.146;17.162;2023-02-16T00:13:26;100985.51;;;-2.45;86.63
38806;BME280;25635;51.146;17.162;2023-02-16T00:16:23;100984.61;;;-2.52;86.55
38806;BME280;25635;51.146;17.162;2023-02-16T00:18:50;100983.89;;;-2.55;87.36
38806;BME280;25635;51.146;17.162;2023-02-16T00:21:16;100985.11;;;-2.55;87.07
38806;BME280;25635;51.146;17.162;2023-02-16T00:23:44;100989.26;;;-2.60;87.01
38806;BME280;25635;51.146;17.162;2023-02-16T00:26:19;100991.22;;;-2.65;86.92
38806;BME280;25635;51.146;17.162;2023-02-16T00:28:48;100992.30;;;-2.70;87.12
38806;BME280;25635;51.146;17.162;2023-02-16T00:31:23;100990.14;;;-2.74;87.08
38806;BME280;25635;51.146;17.162;2023-02-16T00:33:52;100993.64;;;-2.79;87.39
38806;BME280;25635;51.146;17.162;2023-02-16T00:36:19;100990.95;;;-2.84;87.31
38806;BME280;25635;51.146;17.162;2023-02-16T00:38:46;100984.88;;;-2.86;87.78
38806;BME280;25635;51.146;17.162;2023-02-16T00:41:18;100985.52;;;-2.89;87.35
38806;BME280;25635;51.146;17.162;2023-02-16T00:44:05;100984.05;;;-2.91;87.54
38806;BME280;25635;51.146;17.162;2023-02-16T00:46:37;100984.81;;;-2.93;87.40
38806;BME280;25635;51.146;17.162;2023-02-16T00:49:03;100984.73;;;-2.94;87.52
38806;BME280;25635;51.146;17.162;2023-02-16T00:51:29;100990.15;;;-2.95;87.97
38806;BME280;25635;51.146;17.162;2023-02-16T00:53:55;100993.33;;;-2.96;87.47
38806;BME280;25635;51.146;17.162;2023-02-16T00:56:21;100994.99;;;-2.99;87.44
38806;BME280;25635;51.146;17.162;2023-02-16T00:58:49;100989.88;;;-3.02;87.85
38806;BME280;25635;51.146;17.162;2023-02-16T01:01:20;100988.03;;;-3.05;88.03
38806;BME280;25635;51.146;17.162;2023-02-16T01:03:49;100986.39;;;-3.07;88.07
38806;BME280;25635;51.146;17.162;2023-02-16T01:06:15;100982.63;;;-3.10;88.28
38806;BME280;25635;51.146;17.162;2023-02-16T01:09:10;100983.12;;;-3.13;88.17
38806;BME280;25635;51.146;17.162;2023-02-16T01:11:55;100977.54;;;-3.18;88.03
38806;BME280;25635;51.146;17.162;2023-02-16T01:14:22;100979.98;;;-3.19;88.12
38806;BME280;25635;51.146;17.162;2023-02-16T01:16:48;100979.94;;;-3.20;88.03
38806;BME280;25635;51.146;17.162;2023-02-16T01:19:15;100977.30;;;-3.19;88.77
38806;BME280;25635;51.146;17.162;2023-02-16T01:21:42;100974.79;;;-3.18;88.51
38806;BME280;25635;51.146;17.162;2023-02-16T01:24:08;100969.05;;;-3.17;88.25
38806;BME280;25635;51.146;17.162;2023-02-16T01:26:38;100969.96;;;-3.19;88.19
38806;BME280;25635;51.146;17.162;2023-02-16T01:29:06;100970.13;;;-3.19;88.40
38806;BME280;25635;51.146;17.162;2023-02-16T01:31:32;100966.67;;;-3.17;88.32
38806;BME280;25635;51.146;17.162;2023-02-16T01:33:58;100971.48;;;-3.16;88.63
38806;BME280;25635;51.146;17.162;2023-02-16T01:38:50;100975.35;;;-3.17;89.14
38806;BME280;25635;51.146;17.162;2023-02-16T01:44:16;100970.43;;;-3.20;89.49
38806;BME280;25635;51.146;17.162;2023-02-16T01:47:03;100965.89;;;-3.21;88.90
38806;BME280;25635;51.146;17.162;2023-02-16T01:49:32;100960.02;;;-3.28;88.18
38806;BME280;25635;51.146;17.162;2023-02-16T01:52:11;100954.21;;;-3.31;88.56
38806;BME280;25635;51.146;17.162;2023-02-16T01:55:12;100955.77;;;-3.31;88.85
38806;BME280;25635;51.146;17.162;2023-02-16T02:00:28;100944.94;;;-3.32;88.97
38806;BME280;25635;51.146;17.162;2023-02-16T02:03:01;100938.23;;;-3.33;88.65
38806;BME280;25635;51.146;17.162;2023-02-16T02:05:49;100936.94;;;-3.35;88.85
38806;BME280;25635;51.146;17.162;2023-02-16T02:11:06;100937.41;;;-3.38;89.02
38806;BME280;25635;51.146;17.162;2023-02-16T02:14:02;100933.01;;;-3.44;88.77
38806;BME280;25635;51.146;17.162;2023-02-16T02:16:31;100924.98;;;-3.50;88.58
38806;BME280;25635;51.146;17.162;2023-02-16T02:18:57;100924.16;;;-3.55;88.83
38806;BME280;25635;51.146;17.162;2023-02-16T02:25:13;100916.23;;;-3.62;88.68
38806;BME280;25635;51.146;17.162;2023-02-16T02:38:11;100908.73;;;-3.56;89.09
38806;BME280;25635;51.146;17.162;2023-02-16T02:40:51;100915.23;;;-3.59;89.65
38806;BME280;25635;51.146;17.162;2023-02-16T02:43:29;100917.77;;;-3.56;90.06
38806;BME280;25635;51.146;17.162;2023-02-16T02:46:07;100920.90;;;-3.55;89.47
38806;BME280;25635;51.146;17.162;2023-02-16T02:48:36;100918.81;;;-3.58;89.30
38806;BME280;25635;51.146;17.162;2023-02-16T02:51:09;100924.17;;;-3.63;89.08
38806;BME280;25635;51.146;17.162;2023-02-16T03:00:15;100915.98;;;-3.75;89.97
38806;BME280;25635;51.146;17.162;2023-02-16T03:03:24;100916.58;;;-3.76;89.66
38806;BME280;25635;51.146;17.162;2023-02-16T03:06:04;100911.08;;;-3.77;89.47
38806;BME280;25635;51.146;17.162;2023-02-16T03:08:34;100913.45;;;-3.77;89.32
38806;BME280;25635;51.146;17.162;2023-02-16T03:11:22;100916.27;;;-3.75;89.71
38806;BME280;25635;51.146;17.162;2023-02-16T03:14:21;100912.10;;;-3.74;89.78
38806;BME280;25635;51.146;17.162;2023-02-16T03:16:53;100906.25;;;-3.72;90.03
38806;BME280;25635;51.146;17.162;2023-02-16T03:19:42;100905.84;;;-3.70;90.15
38806;BME280;25635;51.146;17.162;2023-02-16T03:22:28;100910.83;;;-3.70;90.04
38806;BME280;25635;51.146;17.162;2023-02-16T03:25:13;100910.77;;;-3.71;89.79
38806;BME280;25635;51.146;17.162;2023-02-16T03:28:02;100913.29;;;-3.74;89.38
38806;BME280;25635;51.146;17.162;2023-02-16T03:30:49;100912.15;;;-3.79;89.17
38806;BME280;25635;51.146;17.162;2023-02-16T03:33:16;100910.02;;;-3.83;89.06
38806;BME280;25635;51.146;17.162;2023-02-16T03:35:44;100908.79;;;-3.89;89.06
38806;BME280;25635;51.146;17.162;2023-02-16T03:38:11;100904.02;;;-3.92;89.75
38806;BME280;25635;51.146;17.162;2023-02-16T03:40:38;100902.34;;;-3.94;89.30
38806;BME280;25635;51.146;17.162;2023-02-16T03:43:07;100898.17;;;-3.98;89.61
38806;BME280;25635;51.146;17.162;2023-02-16T03:45:35;100898.19;;;-3.98;89.84
38806;BME280;25635;51.146;17.162;2023-02-16T03:48:02;100900.13;;;-4.00;89.47
38806;BME280;25635;51.146;17.162;2023-02-16T03:50:29;100904.29;;;-3.98;89.98
38806;BME280;25635;51.146;17.162;2023-02-16T03:52:56;100902.89;;;-3.94;90.21
38806;BME280;25635;51.146;17.162;2023-02-16T03:55:40;100904.74;;;-3.94;89.28
38806;BME280;25635;51.146;17.162;2023-02-16T03:58:09;100903.06;;;-3.97;89.40
38806;BME280;25635;51.146;17.162;2023-02-16T04:00:36;100898.40;;;-3.98;89.52
38806;BME280;25635;51.146;17.162;2023-02-16T04:03:03;100903.60;;;-3.99;89.69
38806;BME280;25635;51.146;17.162;2023-02-16T04:05:30;100909.44;;;-3.95;90.59
38806;BME280;25635;51.146;17.162;2023-02-16T04:07:56;100905.84;;;-3.93;90.50
38806;BME280;25635;51.146;17.162;2023-02-16T04:10:22;100901.47;;;-3.95;90.12
38806;BME280;25635;51.146;17.162;2023-02-16T04:12:49;100900.83;;;-4.00;89.56
38806;BME280;25635;51.146;17.162;2023-02-16T04:15:18;100900.10;;;-4.06;89.43
38806;BME280;25635;51.146;17.162;2023-02-16T04:17:44;100901.25;;;-4.09;90.35
38806;BME280;25635;51.146;17.162;2023-02-16T04:20:14;100901.13;;;-4.08;90.47
38806;BME280;25635;51.146;17.162;2023-02-16T04:22:40;100900.84;;;-4.10;89.85
38806;BME280;25635;51.146;17.162;2023-02-16T04:25:07;100902.23;;;-4.13;89.19
38806;BME280;25635;51.146;17.162;2023-02-16T04:27:34;100902.73;;;-4.15;89.22
38806;BME280;25635;51.146;17.162;2023-02-16T04:30:00;100907.27;;;-4.17;89.45
38806;BME280;25635;51.146;17.162;2023-02-16T04:32:26;100904.42;;;-4.16;89.85
38806;BME280;25635;51.146;17.162;2023-02-16T04:34:52;100902.41;;;-4.13;89.91
38806;BME280;25635;51.146;17.162;2023-02-16T04:37:19;100899.95;;;-4.06;90.75
38806;BME280;25635;51.146;17.162;2023-02-16T04:39:45;100898.35;;;-4.01;90.10
38806;BME280;25635;51.146;17.162;2023-02-16T04:42:11;100900.00;;;-3.99;89.93
38806;BME280;25635;51.146;17.162;2023-02-16T04:44:38;100896.52;;;-4.00;89.69
38806;BME280;25635;51.146;17.162;2023-02-16T04:47:04;100898.68;;;-4.04;89.46
38806;BME280;25635;51.146;17.162;2023-02-16T04:49:30;100900.98;;;-4.08;89.11
38806;BME280;25635;51.146;17.162;2023-02-16T04:51:56;100896.83;;;-4.15;88.81
38806;BME280;25635;51.146;17.162;2023-02-16T04:54:22;100897.08;;;-4.24;88.76
38806;BME280;25635;51.146;17.162;2023-02-16T04:56:48;100896.73;;;-4.27;89.64
38806;BME280;25635;51.146;17.162;2023-02-16T04:59:15;100895.95;;;-4.26;90.19
38806;BME280;25635;51.146;17.162;2023-02-16T05:01:41;100897.86;;;-4.25;90.28
38806;BME280;25635;51.146;17.162;2023-02-16T05:04:07;100897.54;;;-4.25;90.63
38806;BME280;25635;51.146;17.162;2023-02-16T05:06:35;100893.10;;;-4.23;90.28
38806;BME280;25635;51.146;17.162;2023-02-16T05:09:03;100885.95;;;-4.20;90.97
38806;BME280;25635;51.146;17.162;2023-02-16T05:11:29;100884.63;;;-4.14;91.06
38806;BME280;25635;51.146;17.162;2023-02-16T05:14:34;100881.94;;;-4.10;90.66
38806;BME280;25635;51.146;17.162;2023-02-16T05:17:18;100880.03;;;-4.08;90.86
38806;BME280;25635;51.146;17.162;2023-02-16T05:19:46;100881.84;;;-4.06;90.93
38806;BME280;25635;51.146;17.162;2023-02-16T05:22:13;100880.04;;;-4.05;90.68
38806;BME280;25635;51.146;17.162;2023-02-16T05:24:40;100879.20;;;-4.05;90.90
38806;BME280;25635;51.146;17.162;2023-02-16T05:27:13;100876.62;;;-4.03;90.92
38806;BME280;25635;51.146;17.162;2023-02-16T05:29:39;100872.93;;;-3.99;91.06
38806;BME280;25635;51.146;17.162;2023-02-16T05:32:05;100876.52;;;-3.96;91.19
38806;BME280;25635;51.146;17.162;2023-02-16T05:34:31;100876.27;;;-3.94;91.29
38806;BME280;25635;51.146;17.162;2023-02-16T05:36:57;100873.39;;;-3.94;91.24
38806;BME280;25635;51.146;17.162;2023-02-16T05:39:23;100881.70;;;-3.95;91.44
38806;BME280;25635;51.146;17.162;2023-02-16T05:41:49;100884.42;;;-3.97;91.34
38806;BME280;25635;51.146;17.162;2023-02-16T05:44:15;100887.98;;;-4.00;90.73
38806;BME280;25635;51.146;17.162;2023-02-16T05:46:42;100890.94;;;-4.08;90.08
38806;BME280;25635;51.146;17.162;2023-02-16T05:49:09;100891.53;;;-4.12;90.35
38806;BME280;25635;51.146;17.162;2023-02-16T05:51:35;100889.54;;;-4.14;91.02
38806;BME280;25635;51.146;17.162;2023-02-16T05:54:03;100892.59;;;-4.12;91.18
38806;BME280;25635;51.146;17.162;2023-02-16T05:56:29;100892.58;;;-4.09;91.20
38806;BME280;25635;51.146;17.162;2023-02-16T05:58:57;100893.88;;;-4.08;90.54
38806;BME280;25635;51.146;17.162;2023-02-16T06:01:23;100893.98;;;-4.05;90.74
38806;BME280;25635;51.146;17.162;2023-02-16T06:03:50;100896.41;;;-4.02;91.04
38806;BME280;25635;51.146;17.162;2023-02-16T06:06:16;100902.12;;;-3.98;91.20
38806;BME280;25635;51.146;17.162;2023-02-16T06:08:42;100902.77;;;-3.98;90.83
38806;BME280;25635;51.146;17.162;2023-02-16T06:11:08;100906.41;;;-4.00;90.76
38806;BME280;25635;51.146;17.162;2023-02-16T06:13:54;100909.66;;;-4.03;90.67
38806;BME280;25635;51.146;17.162;2023-02-16T06:16:24;100911.70;;;-4.05;90.36
38806;BME280;25635;51.146;17.162;2023-02-16T06:18:51;100918.31;;;-4.09;90.19
38806;BME280;25635;51.146;17.162;2023-02-16T06:21:18;100916.70;;;-4.13;90.11
38806;BME280;25635;51.146;17.162;2023-02-16T06:23:44;100917.82;;;-4.19;89.58
38806;BME280;25635;51.146;17.162;2023-02-16T06:26:11;100916.30;;;-4.22;90.22
38806;BME280;25635;51.146;17.162;2023-02-16T06:28:37;100912.89;;;-4.19;90.73
38806;BME280;25635;51.146;17.162;2023-02-16T06:31:03;100913.00;;;-4.15;91.22
38806;BME280;25635;51.146;17.162;2023-02-16T06:33:29;100912.66;;;-4.09;91.50
38806;BME280;25635;51.146;17.162;2023-02-16T06:35:55;100919.17;;;-4.03;91.38
38806;BME280;25635;51.146;17.162;2023-02-16T06:38:21;100915.98;;;-3.97;91.60
38806;BME280;25635;51.146;17.162;2023-02-16T06:40:51;100913.08;;;-3.92;91.40
38806;BME280;25635;51.146;17.162;2023-02-16T06:43:17;100911.02;;;-3.89;91.46
38806;BME280;25635;51.146;17.162;2023-02-16T06:45:43;100912.34;;;-3.84;91.19
38806;BME280;25635;51.146;17.162;2023-02-16T06:48:09;100910.98;;;-3.81;91.14
38806;BME280;25635;51.146;17.162;2023-02-16T06:50:35;100914.17;;;-3.79;91.22
38806;BME280;25635;51.146;17.162;2023-02-16T06:53:01;100910.52;;;-3.78;91.18
38806;BME280;25635;51.146;17.162;2023-02-16T06:55:27;100913.77;;;-3.75;91.24
38806;BME280;25635;51.146;17.162;2023-02-16T06:57:56;100917.05;;;-3.71;91.82
38806;BME280;25635;51.146;17.162;2023-02-16T07:00:22;100912.77;;;-3.69;91.88
38806;BME280;25635;51.146;17.162;2023-02-16T07:02:49;100910.77;;;-3.68;91.41
38806;BME280;25635;51.146;17.162;2023-02-16T07:05:16;100912.98;;;-3.65;91.82
38806;BME280;25635;51.146;17.162;2023-02-16T07:07:42;100912.01;;;-3.61;91.76
38806;BME280;25635;51.146;17.162;2023-02-16T07:10:08;100915.66;;;-3.54;92.45
38806;BME280;25635;51.146;17.162;2023-02-16T07:12:34;100917.36;;;-3.46;92.89
38806;BME280;25635;51.146;17.162;2023-02-16T07:15:01;100919.75;;;-3.37;93.17
38806;BME280;25635;51.146;17.162;2023-02-16T07:17:27;100916.30;;;-3.30;92.71
38806;BME280;25635;51.146;17.162;2023-02-16T07:19:53;100915.42;;;-3.21;92.96
38806;BME280;25635;51.146;17.162;2023-02-16T07:22:19;100918.35;;;-3.12;92.89
38806;BME280;25635;51.146;17.162;2023-02-16T07:24:45;100916.29;;;-3.03;92.91
38806;BME280;25635;51.146;17.162;2023-02-16T07:27:11;100919.23;;;-2.93;92.95
38806;BME280;25635;51.146;17.162;2023-02-16T07:29:37;100915.64;;;-2.85;92.72
38806;BME280;25635;51.146;17.162;2023-02-16T07:32:03;100914.75;;;-2.76;93.04
38806;BME280;25635;51.146;17.162;2023-02-16T07:34:29;100909.05;;;-2.69;93.19
38806;BME280;25635;51.146;17.162;2023-02-16T07:36:56;100908.96;;;-2.61;93.38
38806;BME280;25635;51.146;17.162;2023-02-16T07:39:22;100911.36;;;-2.55;93.61
38806;BME280;25635;51.146;17.162;2023-02-16T07:41:48;100910.98;;;-2.49;93.45
38806;BME280;25635;51.146;17.162;2023-02-16T07:44:14;100910.16;;;-2.42;93.37
38806;BME280;25635;51.146;17.162;2023-02-16T07:46:40;100909.68;;;-2.36;93.46
38806;BME280;25635;51.146;17.162;2023-02-16T07:49:06;100907.50;;;-2.29;93.95
38806;BME280;25635;51.146;17.162;2023-02-16T07:51:32;100908.37;;;-2.19;93.75
38806;BME280;25635;51.146;17.162;2023-02-16T07:53:59;100909.83;;;-2.08;94.13
38806;BME280;25635;51.146;17.162;2023-02-16T07:56:28;100902.72;;;-1.97;94.04
38806;BME280;25635;51.146;17.162;2023-02-16T07:58:55;100902.15;;;-1.85;94.23
38806;BME280;25635;51.146;17.162;2023-02-16T08:01:22;100896.66;;;-1.73;94.45
38806;BME280;25635;51.146;17.162;2023-02-16T08:03:49;100897.14;;;-1.60;94.50
38806;BME280;25635;51.146;17.162;2023-02-16T08:06:16;100900.66;;;-1.48;94.24
38806;BME280;25635;51.146;17.162;2023-02-16T08:08:43;100898.89;;;-1.36;94.16
38806;BME280;25635;51.146;17.162;2023-02-16T08:11:18;100897.27;;;-1.24;94.35
38806;BME280;25635;51.146;17.162;2023-02-16T08:13:45;100894.70;;;-1.11;94.66
38806;BME280;25635;51.146;17.162;2023-02-16T08:16:15;100890.70;;;-0.98;95.06
38806;BME280;25635;51.146;17.162;2023-02-16T08:18:41;100887.91;;;-0.85;95.00
38806;BME280;25635;51.146;17.162;2023-02-16T08:21:18;100884.83;;;-0.74;95.23
38806;BME280;25635;51.146;17.162;2023-02-16T08:23:48;100878.66;;;-0.64;95.20
38806;BME280;25635;51.146;17.162;2023-02-16T08:26:17;100874.87;;;-0.53;95.37
38806;BME280;25635;51.146;17.162;2023-02-16T08:28:46;100880.63;;;-0.44;95.03
38806;BME280;25635;51.146;17.162;2023-02-16T08:31:14;100877.20;;;-0.33;94.89
38806;BME280;25635;51.146;17.162;2023-02-16T08:33:40;100877.56;;;-0.22;95.28
38806;BME280;25635;51.146;17.162;2023-02-16T08:36:11;100873.04;;;-0.08;95.34
38806;BME280;25635;51.146;17.162;2023-02-16T08:38:40;100874.01;;;0.06;95.63
38806;BME280;25635;51.146;17.162;2023-02-16T08:41:08;100871.86;;;0.19;95.58
38806;BME280;25635;51.146;17.162;2023-02-16T08:43:34;100876.08;;;0.33;95.24
38806;BME280;25635;51.146;17.162;2023-02-16T08:46:00;100877.88;;;0.43;94.10
38806;BME280;25635;51.146;17.162;2023-02-16T08:48:26;100877.80;;;0.53;93.45
38806;BME280;25635;51.146;17.162;2023-02-16T08:50:53;100872.70;;;0.62;93.27
38806;BME280;25635;51.146;17.162;2023-02-16T08:53:20;100876.30;;;0.74;93.68
38806;BME280;25635;51.146;17.162;2023-02-16T08:55:53;100874.70;;;0.85;93.61
38806;BME280;25635;51.146;17.162;2023-02-16T08:58:19;100874.58;;;0.94;92.79
38806;BME280;25635;51.146;17.162;2023-02-16T09:00:45;100878.77;;;1.04;92.52
38806;BME280;25635;51.146;17.162;2023-02-16T09:03:11;100877.13;;;1.15;92.02
38806;BME280;25635;51.146;17.162;2023-02-16T09:05:38;100877.73;;;1.25;92.02
38806;BME280;25635;51.146;17.162;2023-02-16T09:08:05;100879.98;;;1.38;92.40
38806;BME280;25635;51.146;17.162;2023-02-16T09:10:31;100880.39;;;1.53;92.71
38806;BME280;25635;51.146;17.162;2023-02-16T09:12:57;100877.73;;;1.69;93.29
38806;BME280;25635;51.146;17.162;2023-02-16T10:18:24;100846.93;;;5.61;76.90
38806;BME280;25635;51.146;17.162;2023-02-16T10:20:54;100849.41;;;5.71;78.27
38806;BME280;25635;51.146;17.162;2023-02-16T10:23:40;100850.46;;;5.80;78.05
38806;BME280;25635;51.146;17.162;2023-02-16T10:28:48;100853.30;;;5.98;78.01
38806;BME280;25635;51.146;17.162;2023-02-16T10:33:59;100853.30;;;6.14;76.10
38806;BME280;25635;51.146;17.162;2023-02-16T10:39:28;100852.42;;;6.31;77.43
38806;BME280;25635;51.146;17.162;2023-02-16T10:42:28;100850.39;;;6.42;74.91
38806;BME280;25635;51.146;17.162;2023-02-16T10:47:39;100850.69;;;6.58;74.34
38806;BME280;25635;51.146;17.162;2023-02-16T10:50:17;100844.38;;;6.63;74.55
38806;BME280;25635;51.146;17.162;2023-02-16T10:52:46;100842.63;;;6.72;74.27
38806;BME280;25635;51.146;17.162;2023-02-16T10:55:12;100838.23;;;6.77;73.24
38806;BME280;25635;51.146;17.162;2023-02-16T10:57:39;100837.91;;;6.79;72.23
38806;BME280;25635;51.146;17.162;2023-02-16T11:00:15;100833.08;;;6.81;71.84
38806;BME280;25635;51.146;17.162;2023-02-16T11:02:46;100835.73;;;6.84;72.07
38806;BME280;25635;51.146;17.162;2023-02-16T11:07:53;100827.69;;;6.90;70.71
38806;BME280;25635;51.146;17.162;2023-02-16T11:10:44;100830.33;;;6.92;71.84
38806;BME280;25635;51.146;17.162;2023-02-16T11:15:53;100832.90;;;7.01;71.44
38806;BME280;25635;51.146;17.162;2023-02-16T11:18:34;100832.61;;;7.04;71.50
38806;BME280;25635;51.146;17.162;2023-02-16T11:21:02;100829.55;;;7.08;71.16
38806;BME280;25635;51.146;17.162;2023-02-16T11:24:00;100829.28;;;7.13;71.28
38806;BME280;25635;51.146;17.162;2023-02-16T11:26:27;100827.83;;;7.20;72.72
38806;BME280;25635;51.146;17.162;2023-02-16T11:29:07;100828.41;;;7.24;71.98
38806;BME280;25635;51.146;17.162;2023-02-16T11:31:42;100826.60;;;7.30;71.54
38806;BME280;25635;51.146;17.162;2023-02-16T11:36:37;100833.02;;;7.41;71.87
38806;BME280;25635;51.146;17.162;2023-02-16T11:42:07;100826.39;;;7.51;71.01
38806;BME280;25635;51.146;17.162;2023-02-16T11:44:42;100822.69;;;7.58;70.87
38806;BME280;25635;51.146;17.162;2023-02-16T11:47:36;100821.03;;;7.65;71.53
38806;BME280;25635;51.146;17.162;2023-02-16T11:50:24;100828.92;;;7.70;69.29
38806;BME280;25635;51.146;17.162;2023-02-16T11:55:41;100826.52;;;7.72;69.33
38806;BME280;25635;51.146;17.162;2023-02-16T12:01:02;100825.70;;;7.74;70.46
38806;BME280;25635;51.146;17.162;2023-02-16T12:09:31;100805.66;;;7.83;68.32
38806;BME280;25635;51.146;17.162;2023-02-16T12:12:15;100803.23;;;7.82;68.27
38806;BME280;25635;51.146;17.162;2023-02-16T12:17:58;100798.36;;;7.83;67.77
38806;BME280;25635;51.146;17.162;2023-02-16T12:23:38;100789.22;;;7.87;69.49
38806;BME280;25635;51.146;17.162;2023-02-16T12:34:51;100789.52;;;7.97;68.47
38806;BME280;25635;51.146;17.162;2023-02-16T12:43:02;100790.18;;;8.10;69.30
38806;BME280;25635;51.146;17.162;2023-02-16T12:45:37;100797.46;;;8.08;67.26
38806;BME280;25635;51.146;17.162;2023-02-16T12:51:02;100786.67;;;8.07;68.27
38806;BME280;25635;51.146;17.162;2023-02-16T12:54:00;100785.83;;;8.09;70.01
38806;BME280;25635;51.146;17.162;2023-02-16T12:56:44;100782.42;;;8.16;68.81
38806;BME280;25635;51.146;17.162;2023-02-16T12:59:34;100780.33;;;8.14;68.45
38806;BME280;25635;51.146;17.162;2023-02-16T13:02:17;100774.76;;;8.13;69.66
38806;BME280;25635;51.146;17.162;2023-02-16T13:04:57;100774.77;;;8.15;69.28
38806;BME280;25635;51.146;17.162;2023-02-16T13:07:38;100772.19;;;8.16;68.65
38806;BME280;25635;51.146;17.162;2023-02-16T13:10:32;100772.70;;;8.16;69.47
38806;BME280;25635;51.146;17.162;2023-02-16T13:13:12;100766.30;;;8.19;70.08
38806;BME280;25635;51.146;17.162;2023-02-16T13:15:50;100765.14;;;8.24;69.47
38806;BME280;25635;51.146;17.162;2023-02-16T13:18:25;100761.50;;;8.25;68.29
38806;BME280;25635;51.146;17.162;2023-02-16T13:21:02;100759.45;;;8.26;69.26
38806;BME280;25635;51.146;17.162;2023-02-16T13:44:08;100729.34;;;8.22;66.76
38806;BME280;25635;51.146;17.162;2023-02-16T13:46:44;100730.02;;;8.19;66.83
38806;BME280;25635;51.146;17.162;2023-02-16T13:51:55;100724.47;;;8.21;67.16
38806;BME280;25635;51.146;17.162;2023-02-16T13:54:27;100727.44;;;8.23;67.48
38806;BME280;25635;51.146;17.162;2023-02-16T13:56:54;100725.55;;;8.24;67.07
38806;BME280;25635;51.146;17.162;2023-02-16T14:01:52;100723.61;;;8.23;67.26
38806;BME280;25635;51.146;17.162;2023-02-16T14:07:35;100721.54;;;8.23;67.07
38806;BME280;25635;51.146;17.162;2023-02-16T14:12:27;100717.70;;;8.23;66.14
38806;BME280;25635;51.146;17.162;2023-02-16T14:14:59;100715.08;;;8.20;65.62
38806;BME280;25635;51.146;17.162;2023-02-16T14:17:29;100714.37;;;8.19;66.77
38806;BME280;25635;51.146;17.162;2023-02-16T14:22:38;100714.55;;;8.19;66.59
38806;BME280;25635;51.146;17.162;2023-02-16T14:35:33;100708.27;;;8.17;66.99
38806;BME280;25635;51.146;17.162;2023-02-16T14:38:04;100703.40;;;8.16;66.79
38806;BME280;25635;51.146;17.162;2023-02-16T14:43:02;100702.87;;;8.15;67.17
38806;BME280;25635;51.146;17.162;2023-02-16T14:45:52;100703.90;;;8.15;67.11
38806;BME280;25635;51.146;17.162;2023-02-16T14:51:33;100698.83;;;8.11;67.32
38806;BME280;25635;51.146;17.162;2023-02-16T14:59:35;100691.56;;;7.97;68.15
38806;BME280;25635;51.146;17.162;2023-02-16T15:04:53;100692.15;;;7.85;68.31
38806;BME280;25635;51.146;17.162;2023-02-16T15:07:21;100691.23;;;7.80;68.45
38806;BME280;25635;51.146;17.162;2023-02-16T15:09:55;100692.91;;;7.76;68.69
38806;BME280;25635;51.146;17.162;2023-02-16T15:12:28;100694.76;;;7.71;68.79
38806;BME280;25635;51.146;17.162;2023-02-16T15:15:04;100691.23;;;7.66;68.60
38806;BME280;25635;51.146;17.162;2023-02-16T15:17:46;100695.35;;;7.62;69.10
38806;BME280;25635;51.146;17.162;2023-02-16T15:20:31;100689.41;;;7.59;69.00
38806;BME280;25635;51.146;17.162;2023-02-16T15:23:02;100692.81;;;7.54;69.09
38806;BME280;25635;51.146;17.162;2023-02-16T15:25:29;100693.29;;;7.49;69.14
38806;BME280;25635;51.146;17.162;2023-02-16T15:28:18;100689.40;;;7.44;69.27
38806;BME280;25635;51.146;17.162;2023-02-16T15:30:53;100686.37;;;7.38;69.23
38806;BME280;25635;51.146;17.162;2023-02-16T15:35:55;100685.31;;;7.24;69.45
38806;BME280;25635;51.146;17.162;2023-02-16T15:38:27;100686.95;;;7.15;69.48
38806;BME280;25635;51.146;17.162;2023-02-16T15:41:08;100689.97;;;7.08;69.60
38806;BME280;25635;51.146;17.162;2023-02-16T15:43:46;100688.95;;;6.98;69.71
38806;BME280;25635;51.146;17.162;2023-02-16T15:46:33;100691.08;;;6.90;69.77
38806;BME280;25635;51.146;17.162;2023-02-16T15:49:20;100690.59;;;6.80;69.97
38806;BME280;25635;51.146;17.162;2023-02-16T15:51:47;100687.88;;;6.71;70.25
38806;BME280;25635;51.146;17.162;2023-02-16T15:54:28;100687.44;;;6.65;69.99
38806;BME280;25635;51.146;17.162;2023-02-16T15:56:58;100685.44;;;6.60;70.23
38806;BME280;25635;51.146;17.162;2023-02-16T16:02:09;100685.23;;;6.47;70.25
38806;BME280;25635;51.146;17.162;2023-02-16T16:04:39;100685.14;;;6.42;70.42
38806;BME280;25635;51.146;17.162;2023-02-16T16:07:14;100679.83;;;6.35;70.87
38806;BME280;25635;51.146;17.162;2023-02-16T16:09:42;100679.70;;;6.27;70.64
38806;BME280;25635;51.146;17.162;2023-02-16T16:12:13;100680.78;;;6.20;70.78
38806;BME280;25635;51.146;17.162;2023-02-16T16:17:31;100683.63;;;6.05;71.08
38806;BME280;25635;51.146;17.162;2023-02-16T16:22:43;100677.33;;;5.93;71.55
38806;BME280;25635;51.146;17.162;2023-02-16T16:25:36;100683.26;;;5.86;71.45
38806;BME280;25635;51.146;17.162;2023-02-16T16:28:07;100686.05;;;5.79;71.44
38806;BME280;25635;51.146;17.162;2023-02-16T16:30:35;100690.13;;;5.74;71.91
38806;BME280;25635;51.146;17.162;2023-02-16T16:33:06;100687.89;;;5.67;72.06
38806;BME280;25635;51.146;17.162;2023-02-16T16:35:48;100685.13;;;5.58;72.07
38806;BME280;25635;51.146;17.162;2023-02-16T16:38:36;100684.21;;;5.47;72.01
38806;BME280;25635;51.146;17.162;2023-02-16T16:41:04;100685.38;;;5.37;72.12
38806;BME280;25635;51.146;17.162;2023-02-16T16:43:36;100685.89;;;5.28;72.38
38806;BME280;25635;51.146;17.162;2023-02-16T16:46:18;100689.69;;;5.20;72.45